sensor_id;sensor_type;location;lat;lon;timestamp;pressure;altitude;pressure_sealevel;temperature;humidity
51147;BME280;37207;53.060;18.726;2022-11-20T00:00:16;100361.34;;;-1.60;82.61
51147;BME280;37207;53.060;18.726;2022-11-20T00:03:03;100361.82;;;-1.62;82.06
51147;BME280;37207;53.060;18.726;2022-11-20T00:05:32;100363.39;;;-1.64;82.16
51147;BME280;37207;53.060;18.726;2022-11-20T00:07:59;100366.48;;;-1.64;82.57
51147;BME280;37207;53.060;18.726;2022-11-20T00:10:25;100365.18;;;-1.65;82.59
51147;BME280;37207;53.060;18.726;2022-11-20T00:12:52;100365.80;;;-1.64;82.66
51147;BME280;37207;53.060;18.726;2022-11-20T00:15:19;100369.26;;;-1.63;82.80
51147;BME280;37207;53.060;18.726;2022-11-20T00:17:46;100369.09;;;-1.61;82.80
51147;BME280;37207;53.060;18.726;2022-11-20T00:20:13;100367.98;;;-1.61;82.65
51147;BME280;37207;53.060;18.726;2022-11-20T00:22:39;100372.63;;;-1.60;82.62
51147;BME280;37207;53.060;18.726;2022-11-20T00:25:06;100375.27;;;-1.60;82.90
51147;BME280;37207;53.060;18.726;2022-11-20T00:27:33;100371.95;;;-1.61;82.63
51147;BME280;37207;53.060;18.726;2022-11-20T00:30:00;100370.33;;;-1.62;82.67
51147;BME280;37207;53.060;18.726;2022-11-20T00:32:27;100369.19;;;-1.63;82.88
51147;BME280;37207;53.060;18.726;2022-11-20T00:34:53;100367.02;;;-1.63;82.96
51147;BME280;37207;53.060;18.726;2022-11-20T00:37:20;100367.41;;;-1.64;82.97
51147;BME280;37207;53.060;18.726;2022-11-20T00:39:47;100367.87;;;-1.63;82.72
51147;BME280;37207;53.060;18.726;2022-11-20T00:42:13;100369.02;;;-1.62;82.92
51147;BME280;37207;53.060;18.726;2022-11-20T00:44:40;100369.27;;;-1.64;83.02
51147;BME280;37207;53.060;18.726;2022-11-20T00:47:07;100368.66;;;-1.64;83.03
51147;BME280;37207;53.060;18.726;2022-11-20T00:49:33;100368.20;;;-1.65;83.05
51147;BME280;37207;53.060;18.726;2022-11-20T00:52:00;100370.16;;;-1.66;82.83
51147;BME280;37207;53.060;18.726;2022-11-20T00:54:27;100368.80;;;-1.70;83.21
51147;BME280;37207;53.060;18.726;2022-11-20T00:56:53;100369.77;;;-1.73;83.04
51147;BME280;37207;53.060;18.726;2022-11-20T00:59:20;100369.20;;;-1.76;83.38
51147;BME280;37207;53.060;18.726;2022-11-20T01:01:47;100368.39;;;-1.79;83.36
51147;BME280;37207;53.060;18.726;2022-11-20T01:04:13;100368.48;;;-1.81;83.29
51147;BME280;37207;53.060;18.726;2022-11-20T01:06:40;100371.08;;;-1.83;83.18
51147;BME280;37207;53.060;18.726;2022-11-20T01:09:11;100370.31;;;-1.85;83.41
51147;BME280;37207;53.060;18.726;2022-11-20T01:11:41;100364.30;;;-1.88;83.50
51147;BME280;37207;53.060;18.726;2022-11-20T01:14:15;100362.41;;;-1.91;83.53
51147;BME280;37207;53.060;18.726;2022-11-20T01:16:50;100358.27;;;-1.92;83.45
51147;BME280;37207;53.060;18.726;2022-11-20T01:19:22;100360.25;;;-1.96;83.45
51147;BME280;37207;53.060;18.726;2022-11-20T01:21:53;100358.56;;;-1.98;83.87
51147;BME280;37207;53.060;18.726;2022-11-20T01:24:21;100358.50;;;-1.99;83.84
51147;BME280;37207;53.060;18.726;2022-11-20T01:26:49;100358.05;;;-2.00;83.79
51147;BME280;37207;53.060;18.726;2022-11-20T01:29:19;100353.35;;;-2.02;83.91
51147;BME280;37207;53.060;18.726;2022-11-20T01:31:46;100352.20;;;-2.03;83.80
51147;BME280;37207;53.060;18.726;2022-11-20T01:34:16;100350.20;;;-2.04;84.05
51147;BME280;37207;53.060;18.726;2022-11-20T01:36:43;100347.42;;;-2.05;83.93
51147;BME280;37207;53.060;18.726;2022-11-20T01:39:14;100350.61;;;-2.06;83.99
51147;BME280;37207;53.060;18.726;2022-11-20T01:41:41;100350.87;;;-2.07;84.11
51147;BME280;37207;53.060;18.726;2022-11-20T01:47:14;100353.69;;;-2.09;84.24
51147;BME280;37207;53.060;18.726;2022-11-20T01:49:48;100352.61;;;-2.08;84.16
51147;BME280;37207;53.060;18.726;2022-11-20T01:52:25;100354.45;;;-2.08;84.15
51147;BME280;37207;53.060;18.726;2022-11-20T01:54:59;100352.48;;;-2.07;84.39
51147;BME280;37207;53.060;18.726;2022-11-20T01:57:29;100348.91;;;-2.06;84.22
51147;BME280;37207;53.060;18.726;2022-11-20T02:00:03;100349.06;;;-2.06;84.59
51147;BME280;37207;53.060;18.726;2022-11-20T02:02:53;100348.61;;;-2.07;84.27
51147;BME280;37207;53.060;18.726;2022-11-20T02:08:07;100346.59;;;-2.06;84.57
51147;BME280;37207;53.060;18.726;2022-11-20T02:10:34;100346.45;;;-2.06;84.47
51147;BME280;37207;53.060;18.726;2022-11-20T02:13:02;100342.70;;;-2.04;84.71
51147;BME280;37207;53.060;18.726;2022-11-20T02:15:47;100343.95;;;-2.04;84.46
51147;BME280;37207;53.060;18.726;2022-11-20T02:18:17;100342.25;;;-2.05;84.89
51147;BME280;37207;53.060;18.726;2022-11-20T02:20:46;100341.06;;;-2.03;85.03
51147;BME280;37207;53.060;18.726;2022-11-20T02:25:53;100338.90;;;-2.02;85.03
51147;BME280;37207;53.060;18.726;2022-11-20T02:28:21;100337.95;;;-2.02;84.79
51147;BME280;37207;53.060;18.726;2022-11-20T02:30:48;100331.76;;;-1.99;85.01
51147;BME280;37207;53.060;18.726;2022-11-20T02:33:15;100333.35;;;-1.97;84.81
51147;BME280;37207;53.060;18.726;2022-11-20T02:35:44;100337.20;;;-1.96;85.07
51147;BME280;37207;53.060;18.726;2022-11-20T02:38:11;100334.83;;;-1.97;84.72
51147;BME280;37207;53.060;18.726;2022-11-20T02:40:39;100332.20;;;-1.98;84.82
51147;BME280;37207;53.060;18.726;2022-11-20T02:43:07;100330.13;;;-2.00;84.79
51147;BME280;37207;53.060;18.726;2022-11-20T02:45:33;100326.21;;;-2.02;84.66
51147;BME280;37207;53.060;18.726;2022-11-20T02:48:00;100327.23;;;-2.04;84.78
51147;BME280;37207;53.060;18.726;2022-11-20T02:50:27;100330.27;;;-2.05;85.05
51147;BME280;37207;53.060;18.726;2022-11-20T02:52:53;100334.91;;;-2.06;84.82
51147;BME280;37207;53.060;18.726;2022-11-20T02:55:20;100333.36;;;-2.05;85.00
51147;BME280;37207;53.060;18.726;2022-11-20T02:57:47;100328.64;;;-2.05;85.12
51147;BME280;37207;53.060;18.726;2022-11-20T03:00:14;100324.92;;;-2.04;85.45
51147;BME280;37207;53.060;18.726;2022-11-20T03:02:40;100324.74;;;-2.02;85.51
51147;BME280;37207;53.060;18.726;2022-11-20T03:05:07;100327.21;;;-2.02;85.42
51147;BME280;37207;53.060;18.726;2022-11-20T03:07:34;100330.95;;;-2.03;85.46
51147;BME280;37207;53.060;18.726;2022-11-20T03:10:01;100331.58;;;-2.05;85.25
51147;BME280;37207;53.060;18.726;2022-11-20T03:12:28;100329.66;;;-2.06;84.94
51147;BME280;37207;53.060;18.726;2022-11-20T03:14:54;100329.83;;;-2.07;85.31
51147;BME280;37207;53.060;18.726;2022-11-20T03:17:21;100329.13;;;-2.07;85.35
51147;BME280;37207;53.060;18.726;2022-11-20T03:19:48;100330.30;;;-2.07;85.28
51147;BME280;37207;53.060;18.726;2022-11-20T03:22:15;100324.24;;;-2.06;85.46
51147;BME280;37207;53.060;18.726;2022-11-20T03:24:41;100327.57;;;-2.06;85.68
51147;BME280;37207;53.060;18.726;2022-11-20T03:27:08;100326.40;;;-2.05;85.61
51147;BME280;37207;53.060;18.726;2022-11-20T03:29:35;100325.85;;;-2.04;85.79
51147;BME280;37207;53.060;18.726;2022-11-20T03:32:02;100326.23;;;-2.04;85.62
51147;BME280;37207;53.060;18.726;2022-11-20T03:34:28;100324.13;;;-2.03;85.88
51147;BME280;37207;53.060;18.726;2022-11-20T03:36:55;100322.73;;;-2.02;86.09
51147;BME280;37207;53.060;18.726;2022-11-20T03:39:22;100322.72;;;-2.01;86.13
51147;BME280;37207;53.060;18.726;2022-11-20T03:41:48;100323.66;;;-2.01;86.03
51147;BME280;37207;53.060;18.726;2022-11-20T03:44:15;100320.56;;;-2.02;85.85
51147;BME280;37207;53.060;18.726;2022-11-20T03:46:42;100324.45;;;-2.03;85.97
51147;BME280;37207;53.060;18.726;2022-11-20T03:49:09;100325.69;;;-2.04;85.84
51147;BME280;37207;53.060;18.726;2022-11-20T03:51:36;100321.53;;;-2.06;85.60
51147;BME280;37207;53.060;18.726;2022-11-20T03:54:05;100318.85;;;-2.07;85.81
51147;BME280;37207;53.060;18.726;2022-11-20T03:56:36;100315.86;;;-2.08;85.79
51147;BME280;37207;53.060;18.726;2022-11-20T03:59:03;100316.22;;;-2.07;85.87
51147;BME280;37207;53.060;18.726;2022-11-20T04:01:32;100318.00;;;-2.07;86.09
51147;BME280;37207;53.060;18.726;2022-11-20T04:04:00;100317.57;;;-2.08;86.10
51147;BME280;37207;53.060;18.726;2022-11-20T04:06:29;100317.73;;;-2.09;86.16
51147;BME280;37207;53.060;18.726;2022-11-20T04:08:57;100318.60;;;-2.10;86.02
51147;BME280;37207;53.060;18.726;2022-11-20T04:11:32;100317.59;;;-2.11;86.48
51147;BME280;37207;53.060;18.726;2022-11-20T04:14:01;100320.17;;;-2.14;86.32
51147;BME280;37207;53.060;18.726;2022-11-20T04:16:30;100320.13;;;-2.15;85.99
51147;BME280;37207;53.060;18.726;2022-11-20T04:18:59;100320.58;;;-2.15;86.25
51147;BME280;37207;53.060;18.726;2022-11-20T04:21:26;100315.63;;;-2.14;86.25
51147;BME280;37207;53.060;18.726;2022-11-20T04:23:54;100310.90;;;-2.13;86.54
51147;BME280;37207;53.060;18.726;2022-11-20T04:26:22;100310.65;;;-2.13;86.56
51147;BME280;37207;53.060;18.726;2022-11-20T04:28:50;100311.58;;;-2.12;86.17
51147;BME280;37207;53.060;18.726;2022-11-20T04:31:20;100311.65;;;-2.12;86.83
51147;BME280;37207;53.060;18.726;2022-11-20T04:33:47;100308.31;;;-2.11;86.70
51147;BME280;37207;53.060;18.726;2022-11-20T04:36:17;100307.89;;;-2.13;86.37
51147;BME280;37207;53.060;18.726;2022-11-20T04:38:44;100301.09;;;-2.14;86.61
51147;BME280;37207;53.060;18.726;2022-11-20T04:41:17;100305.35;;;-2.16;86.53
51147;BME280;37207;53.060;18.726;2022-11-20T04:43:48;100308.01;;;-2.17;86.50
51147;BME280;37207;53.060;18.726;2022-11-20T04:46:20;100312.18;;;-2.18;86.45
51147;BME280;37207;53.060;18.726;2022-11-20T04:48:47;100312.80;;;-2.18;86.61
51147;BME280;37207;53.060;18.726;2022-11-20T04:51:14;100305.69;;;-2.18;86.73
51147;BME280;37207;53.060;18.726;2022-11-20T04:53:41;100303.21;;;-2.18;86.58
51147;BME280;37207;53.060;18.726;2022-11-20T04:56:10;100301.82;;;-2.17;86.81
51147;BME280;37207;53.060;18.726;2022-11-20T04:58:38;100302.58;;;-2.17;86.84
51147;BME280;37207;53.060;18.726;2022-11-20T05:01:21;100307.37;;;-2.16;86.97
51147;BME280;37207;53.060;18.726;2022-11-20T05:03:48;100299.09;;;-2.16;87.05
51147;BME280;37207;53.060;18.726;2022-11-20T05:06:17;100295.56;;;-2.18;87.06
51147;BME280;37207;53.060;18.726;2022-11-20T05:08:52;100294.90;;;-2.21;87.02
51147;BME280;37207;53.060;18.726;2022-11-20T05:11:20;100295.30;;;-2.23;86.65
51147;BME280;37207;53.060;18.726;2022-11-20T05:13:48;100297.23;;;-2.22;86.92
51147;BME280;37207;53.060;18.726;2022-11-20T05:16:18;100297.02;;;-2.23;86.79
51147;BME280;37207;53.060;18.726;2022-11-20T05:18:45;100298.23;;;-2.23;87.03
51147;BME280;37207;53.060;18.726;2022-11-20T05:21:13;100298.79;;;-2.23;87.35
51147;BME280;37207;53.060;18.726;2022-11-20T05:23:40;100294.55;;;-2.24;87.00
51147;BME280;37207;53.060;18.726;2022-11-20T05:26:11;100296.23;;;-2.27;87.34
51147;BME280;37207;53.060;18.726;2022-11-20T05:28:39;100295.23;;;-2.28;87.25
51147;BME280;37207;53.060;18.726;2022-11-20T05:31:13;100293.85;;;-2.28;87.37
51147;BME280;37207;53.060;18.726;2022-11-20T05:33:41;100296.86;;;-2.28;87.20
51147;BME280;37207;53.060;18.726;2022-11-20T05:36:09;100289.36;;;-2.28;87.40
51147;BME280;37207;53.060;18.726;2022-11-20T05:38:36;100286.63;;;-2.26;87.42
51147;BME280;37207;53.060;18.726;2022-11-20T05:41:08;100279.56;;;-2.25;87.53
51147;BME280;37207;53.060;18.726;2022-11-20T05:43:37;100278.58;;;-2.25;87.43
51147;BME280;37207;53.060;18.726;2022-11-20T05:46:06;100278.29;;;-2.26;87.39
51147;BME280;37207;53.060;18.726;2022-11-20T05:48:33;100277.36;;;-2.27;87.35
51147;BME280;37207;53.060;18.726;2022-11-20T05:51:02;100278.86;;;-2.29;87.39
51147;BME280;37207;53.060;18.726;2022-11-20T05:53:29;100280.87;;;-2.30;87.51
51147;BME280;37207;53.060;18.726;2022-11-20T05:56:07;100282.43;;;-2.31;87.16
51147;BME280;37207;53.060;18.726;2022-11-20T05:58:34;100281.13;;;-2.31;87.34
51147;BME280;37207;53.060;18.726;2022-11-20T06:01:08;100276.88;;;-2.32;87.70
51147;BME280;37207;53.060;18.726;2022-11-20T06:03:35;100279.59;;;-2.32;87.69
51147;BME280;37207;53.060;18.726;2022-11-20T06:06:03;100286.98;;;-2.30;87.67
51147;BME280;37207;53.060;18.726;2022-11-20T06:08:31;100282.34;;;-2.29;87.44
51147;BME280;37207;53.060;18.726;2022-11-20T06:10:58;100280.17;;;-2.29;87.61
51147;BME280;37207;53.060;18.726;2022-11-20T06:13:29;100276.20;;;-2.26;87.86
51147;BME280;37207;53.060;18.726;2022-11-20T06:15:55;100279.55;;;-2.23;87.83
51147;BME280;37207;53.060;18.726;2022-11-20T06:18:22;100280.84;;;-2.22;87.80
51147;BME280;37207;53.060;18.726;2022-11-20T06:20:49;100288.63;;;-2.20;87.83
51147;BME280;37207;53.060;18.726;2022-11-20T06:23:16;100282.98;;;-2.21;88.00
51147;BME280;37207;53.060;18.726;2022-11-20T06:25:42;100286.10;;;-2.22;87.69
51147;BME280;37207;53.060;18.726;2022-11-20T06:28:09;100283.19;;;-2.24;87.60
51147;BME280;37207;53.060;18.726;2022-11-20T06:30:36;100280.21;;;-2.26;87.39
51147;BME280;37207;53.060;18.726;2022-11-20T06:33:03;100283.23;;;-2.26;87.51
51147;BME280;37207;53.060;18.726;2022-11-20T06:35:29;100282.14;;;-2.26;87.64
51147;BME280;37207;53.060;18.726;2022-11-20T06:37:56;100279.23;;;-2.24;87.63
51147;BME280;37207;53.060;18.726;2022-11-20T06:40:23;100281.32;;;-2.23;87.71
51147;BME280;37207;53.060;18.726;2022-11-20T06:42:50;100280.15;;;-2.22;87.87
51147;BME280;37207;53.060;18.726;2022-11-20T06:45:17;100282.07;;;-2.21;87.72
51147;BME280;37207;53.060;18.726;2022-11-20T06:47:43;100273.98;;;-2.18;87.98
51147;BME280;37207;53.060;18.726;2022-11-20T06:50:10;100271.48;;;-2.14;87.89
51147;BME280;37207;53.060;18.726;2022-11-20T06:52:37;100274.00;;;-2.13;87.61
51147;BME280;37207;53.060;18.726;2022-11-20T06:55:04;100275.39;;;-2.11;87.87
51147;BME280;37207;53.060;18.726;2022-11-20T06:57:31;100274.45;;;-2.11;87.91
51147;BME280;37207;53.060;18.726;2022-11-20T06:59:58;100280.07;;;-2.08;88.04
51147;BME280;37207;53.060;18.726;2022-11-20T07:02:25;100274.52;;;-2.05;88.36
51147;BME280;37207;53.060;18.726;2022-11-20T07:04:55;100265.98;;;-1.96;88.87
51147;BME280;37207;53.060;18.726;2022-11-20T07:07:22;100268.45;;;-1.86;88.70
51147;BME280;37207;53.060;18.726;2022-11-20T07:09:48;100268.04;;;-1.79;88.41
51147;BME280;37207;53.060;18.726;2022-11-20T07:12:16;100271.27;;;-1.73;87.99
51147;BME280;37207;53.060;18.726;2022-11-20T07:14:42;100267.74;;;-1.70;88.06
51147;BME280;37207;53.060;18.726;2022-11-20T07:17:09;100266.61;;;-1.65;88.06
51147;BME280;37207;53.060;18.726;2022-11-20T07:19:36;100266.78;;;-1.62;87.96
51147;BME280;37207;53.060;18.726;2022-11-20T07:22:03;100270.75;;;-1.58;87.76
51147;BME280;37207;53.060;18.726;2022-11-20T07:24:30;100268.40;;;-1.57;87.60
51147;BME280;37207;53.060;18.726;2022-11-20T07:26:56;100273.48;;;-1.55;87.79
51147;BME280;37207;53.060;18.726;2022-11-20T07:29:23;100275.92;;;-1.53;87.48
51147;BME280;37207;53.060;18.726;2022-11-20T07:31:50;100274.89;;;-1.51;87.42
51147;BME280;37207;53.060;18.726;2022-11-20T07:34:17;100269.95;;;-1.46;87.31
51147;BME280;37207;53.060;18.726;2022-11-20T07:36:43;100270.13;;;-1.43;87.48
51147;BME280;37207;53.060;18.726;2022-11-20T07:39:10;100271.06;;;-1.39;87.48
51147;BME280;37207;53.060;18.726;2022-11-20T07:41:37;100269.00;;;-1.36;87.31
51147;BME280;37207;53.060;18.726;2022-11-20T07:44:03;100268.91;;;-1.35;87.32
51147;BME280;37207;53.060;18.726;2022-11-20T07:46:30;100266.79;;;-1.34;87.35
51147;BME280;37207;53.060;18.726;2022-11-20T07:48:57;100267.52;;;-1.30;87.17
51147;BME280;37207;53.060;18.726;2022-11-20T07:51:24;100268.81;;;-1.24;87.16
51147;BME280;37207;53.060;18.726;2022-11-20T07:53:52;100270.45;;;-1.16;87.16
51147;BME280;37207;53.060;18.726;2022-11-20T07:56:19;100268.46;;;-1.09;87.06
51147;BME280;37207;53.060;18.726;2022-11-20T07:58:46;100266.94;;;-1.01;87.18
51147;BME280;37207;53.060;18.726;2022-11-20T08:01:13;100271.09;;;-0.95;87.28
51147;BME280;37207;53.060;18.726;2022-11-20T08:03:40;100269.47;;;-0.90;87.12
51147;BME280;37207;53.060;18.726;2022-11-20T08:06:07;100267.92;;;-0.86;86.84
51147;BME280;37207;53.060;18.726;2022-11-20T08:08:34;100267.88;;;-0.84;86.81
51147;BME280;37207;53.060;18.726;2022-11-20T08:11:00;100272.33;;;-0.83;86.64
51147;BME280;37207;53.060;18.726;2022-11-20T08:13:45;100272.27;;;-0.79;86.49
51147;BME280;37207;53.060;18.726;2022-11-20T08:16:31;100270.03;;;-0.75;86.82
51147;BME280;37207;53.060;18.726;2022-11-20T08:18:57;100265.24;;;-0.68;86.67
51147;BME280;37207;53.060;18.726;2022-11-20T08:21:24;100262.98;;;-0.63;86.56
51147;BME280;37207;53.060;18.726;2022-11-20T08:23:51;100255.95;;;-0.60;86.20
51147;BME280;37207;53.060;18.726;2022-11-20T08:26:17;100254.23;;;-0.59;86.12
51147;BME280;37207;53.060;18.726;2022-11-20T08:28:44;100250.00;;;-0.57;86.20
51147;BME280;37207;53.060;18.726;2022-11-20T08:31:11;100251.65;;;-0.54;86.28
51147;BME280;37207;53.060;18.726;2022-11-20T08:33:38;100249.00;;;-0.53;85.94
51147;BME280;37207;53.060;18.726;2022-11-20T08:36:05;100246.23;;;-0.51;85.87
51147;BME280;37207;53.060;18.726;2022-11-20T08:38:32;100243.63;;;-0.45;85.90
51147;BME280;37207;53.060;18.726;2022-11-20T08:41:01;100244.48;;;-0.38;86.06
51147;BME280;37207;53.060;18.726;2022-11-20T08:43:46;100243.69;;;-0.29;85.98
51147;BME280;37207;53.060;18.726;2022-11-20T08:46:13;100243.73;;;-0.27;85.69
51147;BME280;37207;53.060;18.726;2022-11-20T08:48:40;100237.59;;;-0.27;85.52
51147;BME280;37207;53.060;18.726;2022-11-20T08:51:07;100236.17;;;-0.21;85.82
51147;BME280;37207;53.060;18.726;2022-11-20T08:53:34;100236.46;;;-0.14;85.38
51147;BME280;37207;53.060;18.726;2022-11-20T08:56:00;100236.71;;;-0.11;85.22
51147;BME280;37207;53.060;18.726;2022-11-20T08:58:27;100237.56;;;-0.07;85.25
51147;BME280;37207;53.060;18.726;2022-11-20T09:00:54;100237.66;;;-0.01;85.23
51147;BME280;37207;53.060;18.726;2022-11-20T09:03:21;100232.62;;;0.06;85.14
51147;BME280;37207;53.060;18.726;2022-11-20T09:05:47;100230.99;;;0.13;85.16
51147;BME280;37207;53.060;18.726;2022-11-20T09:08:14;100232.08;;;0.18;84.95
51147;BME280;37207;53.060;18.726;2022-11-20T09:10:41;100232.99;;;0.27;84.82
51147;BME280;37207;53.060;18.726;2022-11-20T09:13:08;100229.65;;;0.34;84.33
51147;BME280;37207;53.060;18.726;2022-11-20T09:15:34;100231.88;;;0.38;84.44
51147;BME280;37207;53.060;18.726;2022-11-20T09:18:02;100228.62;;;0.44;84.46
51147;BME280;37207;53.060;18.726;2022-11-20T09:20:30;100223.63;;;0.48;83.87
51147;BME280;37207;53.060;18.726;2022-11-20T09:22:57;100225.52;;;0.44;83.75
51147;BME280;37207;53.060;18.726;2022-11-20T09:25:24;100220.45;;;0.45;83.92
51147;BME280;37207;53.060;18.726;2022-11-20T09:27:58;100219.77;;;0.48;83.76
51147;BME280;37207;53.060;18.726;2022-11-20T09:30:26;100215.98;;;0.50;83.65
51147;BME280;37207;53.060;18.726;2022-11-20T09:32:53;100211.47;;;0.50;83.58
51147;BME280;37207;53.060;18.726;2022-11-20T09:35:20;100213.39;;;0.51;83.18
51147;BME280;37207;53.060;18.726;2022-11-20T09:37:47;100211.75;;;0.49;83.22
51147;BME280;37207;53.060;18.726;2022-11-20T09:40:25;100211.13;;;0.45;83.09
51147;BME280;37207;53.060;18.726;2022-11-20T09:43:12;100205.35;;;0.44;83.11
51147;BME280;37207;53.060;18.726;2022-11-20T09:48:46;100202.08;;;0.65;83.26
